Morning Charlotte — 3EMA2 — position and weather

sailwx.info

Track history (hours):
 
Tides and Currents Weather Stations Pressure Air Temp Water Temp Dewpoint Dewpoint Depression Visibility Wind Speed Wind Dir Waves Ship Positions

Morning Charlotte

Last reported at 2014-Jul-24 19:10 UTC. Time now 2014-Aug-01 05:44 UTC.
Position N 31°06' E 122°31'.

Length 200 m; draft 9.6 m.

Type: Ship. MMSI: 357275000.

Date/timePositionNaut miles runAvg speedWind from/ knotsBaromVisibWave heightAir tempDewpointWater temp
2014-Jul-24 19:10N 31°06' E 122°31'1114.1
2014-Jul-24 18:24N 31°06' E 122°19'2812.8
2014-Jul-24 16:11N 31°17' E 121°48'610.0
2014-Jul-24 15:33N 31°19' E 121°41'0 0.2
2014-Jul-24 14:32N 31°19' E 121°41'0 0.0
2014-Jul-24 13:14N 31°19' E 121°41'0 0.0
2014-Jul-24 12:20N 31°19' E 121°41'0 0.0
2014-Jul-24 08:14N 31°19' E 121°41'0 0.0
2014-Jul-24 06:32N 31°19' E 121°41'0 0.0
2014-Jul-24 05:26N 31°19' E 121°41'0 0.0
2014-Jul-24 04:26N 31°19' E 121°41'0 0.0
2014-Jul-24 03:26N 31°19' E 121°41'0 0.0
2014-Jul-23 23:26N 31°19' E 121°41'0 0.0
2014-Jul-23 21:32N 31°19' E 121°41'0 0.0
2014-Jul-23 20:32N 31°19' E 121°41'0 0.0
2014-Jul-23 19:26N 31°19' E 121°41'0 0.0
2014-Jul-23 18:32N 31°19' E 121°41'0 0.0
2014-Jul-23 17:32N 31°19' E 121°41'0 0.0
2014-Jul-23 16:20N 31°19' E 121°41'0 0.0
2014-Jul-23 15:08N 31°19' E 121°41'0 0.0
2014-Jul-23 13:32N 31°19' E 121°41'0 0.0
2014-Jul-23 12:14N 31°19' E 121°41'0 0.0
2014-Jul-23 10:20N 31°19' E 121°41'0 0.0
2014-Jul-23 09:32N 31°19' E 121°41'0 0.0
2014-Jul-23 08:26N 31°19' E 121°41'0 0.0
2014-Jul-23 07:26N 31°19' E 121°41'0 0.0
2014-Jul-23 06:26N 31°19' E 121°41'0 0.0
2014-Jul-23 04:26N 31°19' E 121°41'0 0.0
2014-Jul-23 03:32N 31°19' E 121°41'0 0.0
2014-Jul-23 02:09N 31°19' E 121°41'0 0.5
2014-Jul-23 01:27N 31°20' E 121°41'2 2.4
2014-Jul-23 00:30N 31°19' E 121°44'10 9.8
2014-Jul-22 23:31N 31°16' E 121°54'11 9.8
2014-Jul-22 22:24N 31°13' E 122°07'8 9.4
2014-Jul-22 21:31N 31°08' E 122°15'9 8.9
2014-Jul-22 20:33N 31°06' E 122°24'7 7.0
2014-Jul-22 19:33N 31°07' E 122°33'20 1.0
2014-Jul-22 00:07N 31°09' E 122°56'26 7.2
2014-Jul-21 20:31N 30°52' E 123°20'517.0
2014-Jul-21 20:14N 30°49' E 123°24'6914.3
2014-Jul-21 15:26N 29°41' E 123°28'3417.3
2014-Jul-21 13:27N 29°13' E 123°06'33718.7
2014-Jul-20 19:27N 24°13' E 120°13'8319.6
2014-Jul-20 15:13N 22°53' E 119°54'1318.9
2014-Jul-20 14:33N 22°40' E 119°52'1818.1
2014-Jul-20 13:33N 22°22' E 119°48'  
2014-Jul-17 01:26N 01°15' E 104°07'1416.3
2014-Jul-17 00:33N 01°12' E 103°53'  
Track history (hours):
 
Tides and Currents Weather Stations Pressure Air Temp Water Temp Dewpoint Dewpoint Depression Visibility Wind Speed Wind Dir Waves Ship Positions

Morning Charlotte

Last reported at 2014-Jul-24 19:10 UTC. Time now 2014-Aug-01 05:44 UTC.
Position N 31°06' E 122°31'.

Length 200 m; draft 9.6 m.

Type: Ship. MMSI: 357275000.

Date/timePositionNaut miles runAvg speedWind from/ knotsBaromVisibWave heightAir tempDewpointWater temp
2014-Jul-24 19:10N 31°06' E 122°31'1114.1
2014-Jul-24 18:24N 31°06' E 122°19'2812.8
2014-Jul-24 16:11N 31°17' E 121°48'610.0
2014-Jul-24 15:33N 31°19' E 121°41'0 0.2
2014-Jul-24 14:32N 31°19' E 121°41'0 0.0
2014-Jul-24 13:14N 31°19' E 121°41'0 0.0
2014-Jul-24 12:20N 31°19' E 121°41'0 0.0
2014-Jul-24 08:14N 31°19' E 121°41'0 0.0
2014-Jul-24 06:32N 31°19' E 121°41'0 0.0
2014-Jul-24 05:26N 31°19' E 121°41'0 0.0
2014-Jul-24 04:26N 31°19' E 121°41'0 0.0
2014-Jul-24 03:26N 31°19' E 121°41'0 0.0
2014-Jul-23 23:26N 31°19' E 121°41'0 0.0
2014-Jul-23 21:32N 31°19' E 121°41'0 0.0
2014-Jul-23 20:32N 31°19' E 121°41'0 0.0
2014-Jul-23 19:26N 31°19' E 121°41'0 0.0
2014-Jul-23 18:32N 31°19' E 121°41'0 0.0
2014-Jul-23 17:32N 31°19' E 121°41'0 0.0
2014-Jul-23 16:20N 31°19' E 121°41'0 0.0
2014-Jul-23 15:08N 31°19' E 121°41'0 0.0
2014-Jul-23 13:32N 31°19' E 121°41'0 0.0
2014-Jul-23 12:14N 31°19' E 121°41'0 0.0
2014-Jul-23 10:20N 31°19' E 121°41'0 0.0
2014-Jul-23 09:32N 31°19' E 121°41'0 0.0
2014-Jul-23 08:26N 31°19' E 121°41'0 0.0
2014-Jul-23 07:26N 31°19' E 121°41'0 0.0
2014-Jul-23 06:26N 31°19' E 121°41'0 0.0
2014-Jul-23 04:26N 31°19' E 121°41'0 0.0
2014-Jul-23 03:32N 31°19' E 121°41'0 0.0
2014-Jul-23 02:09N 31°19' E 121°41'0 0.5
2014-Jul-23 01:27N 31°20' E 121°41'2 2.4
2014-Jul-23 00:30N 31°19' E 121°44'10 9.8
2014-Jul-22 23:31N 31°16' E 121°54'11 9.8
2014-Jul-22 22:24N 31°13' E 122°07'8 9.4
2014-Jul-22 21:31N 31°08' E 122°15'9 8.9
2014-Jul-22 20:33N 31°06' E 122°24'7 7.0
2014-Jul-22 19:33N 31°07' E 122°33'20 1.0
2014-Jul-22 00:07N 31°09' E 122°56'26 7.2
2014-Jul-21 20:31N 30°52' E 123°20'517.0
2014-Jul-21 20:14N 30°49' E 123°24'6914.3
2014-Jul-21 15:26N 29°41' E 123°28'3417.3
2014-Jul-21 13:27N 29°13' E 123°06'33718.7
2014-Jul-20 19:27N 24°13' E 120°13'8319.6
2014-Jul-20 15:13N 22°53' E 119°54'1318.9
2014-Jul-20 14:33N 22°40' E 119°52'1818.1
2014-Jul-20 13:33N 22°22' E 119°48'  
2014-Jul-17 01:26N 01°15' E 104°07'1416.3
2014-Jul-17 00:33N 01°12' E 103°53'  

Dump ship's entire track history